Time;durP1;ratioP1;P1;durP2;ratioP2;P2;SDS_P1;SDS_P2;PMS_P1;PMS_P2;Temp;Humidity;BMP_temperature;BMP_pressure;BME280_temperature;BME280_humidity;BME280_pressure;Samples;Min_cycle;Max_cycle;Signal;HPM_P1;HPM_P2
2022/08/02 00:00:52;;;;;;;8.38;5.07;;;18.90;99.90;;;;;;5017659;28;20425;-94
2022/08/02 00:03:45;;;;;;;9.75;5.53;;;18.80;99.90;;;;;;5003344;28;20073;-95
2022/08/02 00:06:24;;;;;;;5.60;4.78;;;18.70;99.90;;;;;;5005353;28;20413;-96
2022/08/02 00:08:50;;;;;;;5.55;4.68;;;18.60;99.90;;;;;;5018439;28;20030;-96
2022/08/02 00:11:16;;;;;;;10.75;5.85;;;18.60;99.90;;;;;;5002160;28;20030;-95
2022/08/02 00:13:42;;;;;;;5.85;5.25;;;18.40;99.90;;;;;;5018028;28;20433;-95
2022/08/02 00:16:07;;;;;;;6.43;5.35;;;18.30;99.90;;;;;;5000466;28;20121;-95
2022/08/02 00:18:33;;;;;;;9.98;5.35;;;18.20;99.90;;;;;;5012102;28;20045;-93
2022/08/02 00:20:59;;;;;;;8.18;5.90;;;18.20;99.90;;;;;;5019555;28;20041;-95
2022/08/02 00:23:25;;;;;;;8.82;5.55;;;18.10;99.90;;;;;;5001776;28;20044;-95
2022/08/02 00:25:51;;;;;;;7.03;5.85;;;18.10;99.90;;;;;;5017907;28;20034;-95
2022/08/02 00:28:16;;;;;;;8.35;5.57;;;18.00;99.90;;;;;;4994751;28;20169;-95
2022/08/02 00:30:42;;;;;;;9.45;6.38;;;18.00;99.90;;;;;;5017123;28;20040;-94
2022/08/02 00:33:08;;;;;;;7.28;6.25;;;17.90;99.90;;;;;;4999320;28;20452;-96
2022/08/02 00:35:34;;;;;;;8.57;5.90;;;17.90;99.90;;;;;;5029120;28;20045;-95
2022/08/02 00:38:01;;;;;;;6.68;5.40;;;17.90;99.90;;;;;;5021654;28;20010;-94
2022/08/02 00:40:27;;;;;;;9.35;5.90;;;17.80;99.90;;;;;;5038442;28;20026;-95
2022/08/02 00:43:03;;;;;;;10.65;5.88;;;17.80;99.90;;;;;;5038222;28;20086;-95
2022/08/02 00:45:30;;;;;;;8.85;5.85;;;17.80;99.90;;;;;;5017959;28;20030;-95
2022/08/02 00:47:56;;;;;;;7.72;5.90;;;17.80;99.90;;;;;;5018637;28;20080;-95
2022/08/02 00:50:27;;;;;;;11.52;6.30;;;17.80;99.90;;;;;;5021725;28;20037;-96
2022/08/02 00:52:53;;;;;;;7.38;5.68;;;17.80;99.90;;;;;;4983860;28;20143;-94
2022/08/02 00:55:20;;;;;;;6.43;5.82;;;17.80;99.90;;;;;;4999777;28;20026;-94
2022/08/02 00:57:47;;;;;;;7.88;5.97;;;17.90;99.90;;;;;;5018621;28;20033;-94
2022/08/02 01:00:13;;;;;;;8.88;6.07;;;17.90;99.90;;;;;;4995004;28;20033;-95
2022/08/02 01:02:40;;;;;;;10.73;5.60;;;17.90;99.90;;;;;;5020282;28;20026;-96
2022/08/02 01:05:08;;;;;;;8.98;5.90;;;17.90;99.90;;;;;;5010827;28;20478;-95
2022/08/02 01:07:34;;;;;;;7.80;5.85;;;17.90;99.90;;;;;;5018733;28;20030;-95
2022/08/02 01:10:02;;;;;;;6.68;5.53;;;17.80;99.90;;;;;;5019890;28;20056;-94
2022/08/02 01:12:28;;;;;;;8.00;5.78;;;17.80;99.90;;;;;;5019504;28;20030;-95
2022/08/02 01:14:58;;;;;;;8.50;5.88;;;17.80;99.90;;;;;;5019238;28;20393;-96
2022/08/02 01:17:55;;;;;;;7.85;6.13;;;17.70;99.90;;;;;;5019896;28;20019;-95
2022/08/02 01:20:52;;;;;;;9.05;5.55;;;17.60;99.90;;;;;;5018330;28;20025;-96
2022/08/02 01:24:02;;;;;;;8.93;6.25;;;17.60;99.90;;;;;;5013751;28;20033;-96
2022/08/02 01:30:38;;;;;;;6.82;5.55;;;17.40;99.90;;;;;;5051879;22;20426;-84
2022/08/02 01:33:06;;;;;;;7.20;5.80;;;17.30;99.90;;;;;;5000068;28;20018;-85
2022/08/02 01:35:38;;;;;;;7.13;5.43;;;17.40;99.90;;;;;;4990473;28;20077;-85
2022/08/02 01:38:20;;;;;;;10.40;5.22;;;17.40;99.90;;;;;;4988304;28;20023;-85
2022/08/02 01:40:48;;;;;;;8.27;5.63;;;17.50;99.90;;;;;;4987370;28;20037;-84
2022/08/02 01:43:16;;;;;;;10.25;5.80;;;17.50;99.90;;;;;;4977933;28;20039;-85
2022/08/02 01:45:48;;;;;;;7.20;5.25;;;17.50;99.90;;;;;;4981614;28;20023;-85
2022/08/02 01:48:15;;;;;;;7.25;5.50;;;17.60;99.90;;;;;;4986692;28;20042;-85
2022/08/02 01:50:42;;;;;;;6.80;5.50;;;17.70;99.90;;;;;;4964256;28;20034;-85
2022/08/02 01:53:11;;;;;;;7.85;5.15;;;17.80;99.90;;;;;;4980361;28;20022;-85
2022/08/02 01:55:48;;;;;;;6.22;5.15;;;17.90;99.90;;;;;;4992821;28;20129;-85
2022/08/02 01:58:18;;;;;;;6.13;4.80;;;18.00;99.90;;;;;;4991472;28;20023;-85
2022/08/02 02:00:46;;;;;;;5.05;4.55;;;17.90;99.90;;;;;;4986386;28;20077;-85
2022/08/02 02:03:26;;;;;;;6.20;5.32;;;18.00;99.90;;;;;;4982428;28;20086;-85
2022/08/02 02:05:56;;;;;;;6.65;4.97;;;18.00;99.90;;;;;;4992030;28;20053;-86
2022/08/02 02:08:42;;;;;;;7.55;4.95;;;18.10;99.90;;;;;;4981961;28;20037;-86
2022/08/02 02:11:08;;;;;;;7.75;4.45;;;18.10;99.90;;;;;;4981714;28;20033;-85
2022/08/02 02:13:37;;;;;;;7.25;4.30;;;18.20;99.90;;;;;;4989220;28;20058;-85
2022/08/02 02:16:04;;;;;;;5.38;4.57;;;18.20;99.90;;;;;;4980931;28;20030;-85
2022/08/02 02:18:42;;;;;;;6.18;4.88;;;18.10;99.90;;;;;;4986853;28;20027;-85
2022/08/02 02:21:09;;;;;;;5.18;4.68;;;18.10;99.90;;;;;;4978808;28;20045;-86
2022/08/02 02:23:35;;;;;;;5.90;4.60;;;18.00;99.90;;;;;;4986201;28;20029;-85
2022/08/02 02:26:03;;;;;;;5.43;4.72;;;18.00;99.90;;;;;;4989719;28;20035;-85
2022/08/02 02:28:37;;;;;;;4.90;4.40;;;17.90;99.90;;;;;;4982645;28;20408;-86
2022/08/02 02:31:10;;;;;;;6.13;4.55;;;17.80;99.90;;;;;;4991465;28;20060;-85
2022/08/02 02:33:43;;;;;;;7.07;4.78;;;17.70;99.90;;;;;;4974554;28;20069;-85
2022/08/02 02:38:47;;;;;;;6.70;4.60;;;17.80;99.90;;;;;;5036900;28;19979;-94
2022/08/02 02:41:14;;;;;;;5.97;4.80;;;17.80;99.90;;;;;;5027039;28;20069;-94
2022/08/02 02:43:42;;;;;;;8.80;4.85;;;17.80;99.90;;;;;;5020638;28;20026;-94
2022/08/02 02:46:09;;;;;;;7.68;5.03;;;17.70;99.90;;;;;;5017154;28;20022;-95
2022/08/02 02:48:36;;;;;;;5.95;4.40;;;17.70;99.90;;;;;;5022972;28;20033;-95
2022/08/02 02:51:07;;;;;;;5.28;4.50;;;17.70;99.90;;;;;;5007548;28;20079;-94
2022/08/02 02:53:35;;;;;;;7.15;4.60;;;17.70;99.90;;;;;;5021381;28;20050;-94
2022/08/02 02:56:01;;;;;;;5.35;4.57;;;17.60;99.90;;;;;;5013953;28;20026;-95
2022/08/02 02:58:28;;;;;;;7.32;5.07;;;17.60;99.90;;;;;;5030078;28;20049;-94
2022/08/02 03:03:39;;;;;;;5.78;5.15;;;17.60;99.90;;;;;;5027416;28;20121;-94
2022/08/02 03:06:05;;;;;;;5.88;5.03;;;17.50;99.90;;;;;;5032027;28;20048;-95
2022/08/02 03:08:30;;;;;;;7.68;5.63;;;17.50;99.90;;;;;;5023207;28;20105;-94
2022/08/02 03:10:57;;;;;;;6.40;5.03;;;17.40;99.90;;;;;;5030308;28;20119;-95
2022/08/02 03:13:23;;;;;;;6.25;5.65;;;17.50;99.90;;;;;;5022038;28;20029;-95
2022/08/02 03:15:54;;;;;;;8.20;5.15;;;17.50;99.90;;;;;;5023428;28;20026;-94
2022/08/02 03:18:42;;;;;;;6.10;5.47;;;17.50;99.90;;;;;;5014328;28;20026;-94
2022/08/02 03:21:12;;;;;;;9.38;5.88;;;17.50;99.90;;;;;;5029193;28;20026;-95
2022/08/02 03:23:40;;;;;;;7.13;5.38;;;17.50;99.90;;;;;;5007173;28;20042;-96
2022/08/02 03:26:07;;;;;;;7.68;5.45;;;17.50;99.90;;;;;;5012408;28;20469;-94
2022/08/02 03:28:34;;;;;;;9.60;5.55;;;17.50;99.90;;;;;;5011304;28;20425;-94
2022/08/02 03:31:00;;;;;;;6.50;5.55;;;17.40;99.90;;;;;;5015459;28;20030;-95
2022/08/02 03:33:27;;;;;;;6.07;5.47;;;17.40;99.90;;;;;;5020737;28;20025;-94
2022/08/02 03:36:03;;;;;;;6.38;5.70;;;17.40;99.90;;;;;;5012524;28;20498;-94
2022/08/02 03:38:31;;;;;;;6.93;5.93;;;17.30;99.90;;;;;;5011843;28;20026;-95
2022/08/02 03:41:00;;;;;;;6.90;6.03;;;17.30;99.90;;;;;;5013062;28;20040;-93
2022/08/02 03:43:26;;;;;;;8.07;5.93;;;17.30;99.90;;;;;;5016917;28;20041;-94
2022/08/02 03:45:53;;;;;;;10.70;7.80;;;17.30;99.90;;;;;;5005090;28;20030;-95
2022/08/02 03:48:20;;;;;;;13.73;6.43;;;17.30;99.90;;;;;;5026336;28;20025;-94
2022/08/02 03:50:50;;;;;;;9.70;6.75;;;17.30;99.90;;;;;;5004120;28;20117;-95
2022/08/02 03:53:17;;;;;;;6.70;6.00;;;17.30;99.90;;;;;;5022940;28;20022;-94
2022/08/02 03:55:43;;;;;;;8.52;5.28;;;17.30;99.90;;;;;;5005364;28;20064;-95
2022/08/02 03:58:17;;;;;;;10.90;5.93;;;17.20;99.90;;;;;;5017325;28;20037;-90
2022/08/02 04:00:42;;;;;;;11.63;5.93;;;17.10;99.90;;;;;;5014984;28;20465;-90
2022/08/02 04:03:08;;;;;;;8.38;6.05;;;17.10;99.90;;;;;;5011847;28;20109;-90
2022/08/02 04:05:43;;;;;;;9.77;6.13;;;17.00;99.90;;;;;;5027192;28;20469;-91
2022/08/02 04:08:09;;;;;;;7.18;6.30;;;17.00;99.90;;;;;;5026516;28;20034;-89
2022/08/02 04:11:29;;;;;;;11.93;5.53;;;17.00;99.90;;;;;;5017637;28;20443;-90
2022/08/02 04:13:23;;;;;;;6.35;5.10;;;17.00;99.90;;;;;;5026226;28;20492;-91
2022/08/02 04:15:52;;;;;;;9.32;5.90;;;16.90;99.90;;;;;;5033523;28;20026;-90
2022/08/02 04:18:21;;;;;;;8.65;5.97;;;16.80;99.90;;;;;;5023184;28;20093;-91
2022/08/02 04:20:48;;;;;;;5.20;4.60;;;16.90;99.90;;;;;;5015057;28;20053;-90
2022/08/02 04:23:16;;;;;;;5.25;4.75;;;16.80;99.90;;;;;;5024047;28;20130;-91
2022/08/02 04:25:43;;;;;;;6.95;5.13;;;16.90;99.90;;;;;;5027060;28;20045;-90
2022/08/02 04:28:09;;;;;;;5.75;4.78;;;16.90;99.90;;;;;;5022995;28;20064;-89
2022/08/02 04:30:55;;;;;;;10.20;4.88;;;17.00;99.90;;;;;;5005230;28;22401;-90
2022/08/02 04:33:21;;;;;;;7.85;4.60;;;17.10;99.90;;;;;;5005202;28;20064;-91
2022/08/02 04:35:47;;;;;;;9.30;4.80;;;17.20;99.90;;;;;;5005447;28;20032;-91
2022/08/02 04:38:14;;;;;;;5.57;4.45;;;17.20;99.90;;;;;;5026869;28;20033;-91
2022/08/02 04:40:48;;;;;;;5.82;4.75;;;17.30;99.90;;;;;;5022022;28;20056;-90
2022/08/02 04:43:14;;;;;;;5.13;4.22;;;17.40;99.90;;;;;;5018320;28;20033;-91
2022/08/02 04:45:39;;;;;;;5.53;4.45;;;17.50;99.90;;;;;;5024648;28;20037;-90
2022/08/02 04:48:05;;;;;;;4.45;3.67;;;17.50;99.90;;;;;;5021573;28;20026;-91
2022/08/02 04:50:31;;;;;;;5.72;3.58;;;17.60;99.90;;;;;;5023762;28;20033;-91
2022/08/02 04:52:57;;;;;;;4.68;3.67;;;17.60;99.90;;;;;;5018401;28;20136;-91
2022/08/02 04:55:27;;;;;;;4.10;3.50;;;17.70;99.90;;;;;;5022947;28;20456;-91
2022/08/02 04:57:59;;;;;;;5.55;3.28;;;17.70;99.90;;;;;;5022058;28;20025;-90
2022/08/02 05:00:26;;;;;;;3.80;3.33;;;17.80;99.90;;;;;;5013332;28;20469;-90
2022/08/02 05:02:53;;;;;;;6.10;3.15;;;17.90;99.90;;;;;;5021015;28;20377;-91
2022/08/02 05:05:18;;;;;;;3.58;3.28;;;17.90;99.90;;;;;;5011731;28;20026;-90
2022/08/02 05:07:44;;;;;;;5.75;3.00;;;17.80;99.90;;;;;;5022630;28;20032;-90
2022/08/02 05:10:10;;;;;;;3.47;3.17;;;17.80;99.90;;;;;;5031165;28;20492;-89
2022/08/02 05:12:39;;;;;;;3.50;3.20;;;17.80;99.90;;;;;;5014593;28;20545;-90
2022/08/02 05:15:06;;;;;;;3.58;3.28;;;17.70;99.90;;;;;;5027708;28;20022;-90
2022/08/02 05:17:32;;;;;;;3.55;3.25;;;17.70;99.90;;;;;;5026229;28;20067;-90
2022/08/02 05:19:57;;;;;;;3.65;3.30;;;17.60;99.90;;;;;;5023576;28;20062;-90
2022/08/02 05:22:23;;;;;;;3.63;3.30;;;17.60;99.90;;;;;;5012674;28;20142;-89
2022/08/02 05:24:49;;;;;;;3.78;3.30;;;17.60;99.90;;;;;;5010802;28;20107;-91
2022/08/02 05:27:15;;;;;;;3.42;3.13;;;17.70;99.90;;;;;;5009610;28;20033;-91
2022/08/02 05:29:40;;;;;;;6.25;2.92;;;17.70;99.90;;;;;;5008284;28;20076;-90
2022/08/02 05:32:06;;;;;;;4.15;3.28;;;17.80;99.90;;;;;;5010262;28;20761;-90
2022/08/02 05:34:32;;;;;;;3.38;3.03;;;17.90;99.90;;;;;;5029502;28;20104;-90
2022/08/02 05:36:58;;;;;;;4.50;3.10;;;18.00;99.90;;;;;;5028237;28;20472;-90
2022/08/02 05:39:23;;;;;;;3.40;2.65;;;18.20;99.90;;;;;;5025600;28;20026;-89
2022/08/02 05:41:49;;;;;;;3.15;2.70;;;18.40;99.90;;;;;;5021551;28;20030;-92
2022/08/02 05:44:15;;;;;;;3.88;3.03;;;18.70;99.90;;;;;;5011289;28;20026;-91
2022/08/02 05:46:41;;;;;;;2.90;2.70;;;18.90;99.90;;;;;;5019174;28;20096;-90
2022/08/02 05:49:06;;;;;;;3.38;2.97;;;19.20;99.90;;;;;;5012131;28;20035;-90
2022/08/02 05:51:38;;;;;;;3.83;3.08;;;19.40;99.90;;;;;;5026515;28;20111;-90
2022/08/02 05:54:09;;;;;;;;;;;19.50;99.90;;;;;;5012202;28;20112;-91
2022/08/02 05:56:48;;;;;;;4.68;2.67;;;19.70;99.90;;;;;;5024789;28;19920;-90
2022/08/02 06:00:00;;;;;;;3.08;2.78;;;19.80;99.90;;;;;;5025932;28;20025;-91
2022/08/02 06:02:49;;;;;;;2.58;2.38;;;19.80;99.90;;;;;;5008739;28;20120;-90
2022/08/02 06:05:19;;;;;;;3.08;2.75;;;19.80;99.90;;;;;;5013750;28;20084;-90
2022/08/02 06:07:47;;;;;;;2.80;2.60;;;19.80;99.90;;;;;;5026543;28;20429;-90
2022/08/02 06:10:41;;;;;;;3.00;2.70;;;19.70;99.90;;;;;;5020285;28;20065;-89
2022/08/02 06:13:10;;;;;;;3.30;2.88;;;19.80;99.90;;;;;;5030490;28;20120;-91
2022/08/02 06:15:40;;;;;;;3.03;2.70;;;19.80;99.90;;;;;;5023332;28;20445;-90
2022/08/02 06:18:07;;;;;;;3.55;2.30;;;19.80;99.90;;;;;;5024567;28;20033;-90
2022/08/02 06:20:35;;;;;;;2.95;2.70;;;19.90;99.90;;;;;;5022891;28;20033;-91
2022/08/02 06:23:05;;;;;;;3.08;2.83;;;20.00;99.90;;;;;;5009206;28;20038;-90
2022/08/02 06:25:37;;;;;;;4.40;3.15;;;20.00;99.90;;;;;;5011526;28;20116;-90
2022/08/02 06:28:05;;;;;;;4.20;3.10;;;20.10;99.90;;;;;;5011164;28;20065;-88
2022/08/02 06:30:32;;;;;;;3.17;2.85;;;20.10;99.90;;;;;;5023317;28;20061;-89
2022/08/02 06:32:58;;;;;;;3.38;2.95;;;20.20;99.90;;;;;;5015081;28;20030;-89
2022/08/02 06:35:30;;;;;;;3.63;2.65;;;20.20;99.90;;;;;;5021038;28;20032;-91
2022/08/02 06:37:59;;;;;;;4.40;2.78;;;20.20;99.90;;;;;;5023377;28;20080;-90
2022/08/02 06:41:05;;;;;;;6.63;3.08;;;20.20;99.90;;;;;;5018629;28;20104;-90
2022/08/02 06:43:52;;;;;;;6.68;3.35;;;20.40;99.90;;;;;;5010222;28;20113;-91
2022/08/02 06:46:19;;;;;;;3.40;3.10;;;20.50;99.90;;;;;;5027773;28;20028;-91
2022/08/02 06:48:45;;;;;;;3.33;3.03;;;20.70;99.90;;;;;;5021711;28;20699;-91
2022/08/02 06:54:34;;;;;;;3.40;3.10;;;21.00;99.90;;;;;;5026199;28;20029;-89
2022/08/02 06:57:00;;;;;;;9.25;3.22;;;21.10;99.90;;;;;;5023123;28;20148;-89
2022/08/02 07:00:08;;;;;;;4.53;3.15;;;21.20;99.90;;;;;;4999004;28;20486;-89
2022/08/02 07:02:38;;;;;;;3.38;3.08;;;21.30;99.90;;;;;;5011731;28;20034;-90
2022/08/02 07:05:05;;;;;;;3.58;2.80;;;21.40;99.90;;;;;;5020361;28;20103;-91
2022/08/02 07:07:31;;;;;;;3.30;2.83;;;21.60;99.90;;;;;;5014779;28;20033;-90
2022/08/02 07:09:58;;;;;;;6.25;2.90;;;21.70;99.90;;;;;;5027536;28;20038;-90
2022/08/02 07:12:24;;;;;;;5.32;3.03;;;21.80;99.90;;;;;;5011414;28;20029;-89
2022/08/02 07:14:50;;;;;;;3.05;2.67;;;21.80;99.90;;;;;;5021142;28;20473;-90
2022/08/02 07:17:16;;;;;;;3.88;2.85;;;21.80;99.90;;;;;;5017671;28;20022;-90
2022/08/02 07:19:48;;;;;;;3.78;3.28;;;21.80;99.90;;;;;;5006694;28;20030;-91
2022/08/02 07:22:17;;;;;;;6.25;3.00;;;21.70;99.90;;;;;;5031585;28;20029;-90
2022/08/02 07:24:43;;;;;;;3.95;2.65;;;21.80;99.90;;;;;;5029905;28;20029;-91
2022/08/02 07:27:08;;;;;;;2.70;2.03;;;21.70;99.90;;;;;;5030585;28;20052;-89
2022/08/02 07:29:34;;;;;;;2.72;2.13;;;21.50;99.90;;;;;;5014990;28;20036;-89
2022/08/02 07:32:00;;;;;;;4.05;2.45;;;21.50;99.90;;;;;;5016551;28;20025;-88
2022/08/02 07:34:26;;;;;;;2.35;2.08;;;21.40;99.90;;;;;;5017368;28;20026;-91
2022/08/02 07:36:51;;;;;;;3.85;2.10;;;21.40;99.90;;;;;;5024418;28;20427;-90
2022/08/02 07:39:17;;;;;;;3.22;2.00;;;21.20;99.90;;;;;;5017557;28;20116;-90
2022/08/02 07:41:43;;;;;;;3.50;2.53;;;21.20;99.90;;;;;;5017253;28;20026;-92
2022/08/02 07:44:09;;;;;;;1.92;1.80;;;21.20;99.90;;;;;;5021198;28;20071;-89
2022/08/02 07:46:35;;;;;;;2.83;2.17;;;21.30;99.90;;;;;;5028981;28;20030;-91
2022/08/02 07:49:00;;;;;;;2.33;1.80;;;21.40;99.90;;;;;;5024313;28;20038;-90
2022/08/02 07:55:14;;;;;;;2.17;1.70;;;21.50;99.90;;;;;;5016953;28;20141;-91
2022/08/02 07:58:11;;;;;;;2.70;1.67;;;21.60;99.90;;;;;;5032323;28;20022;-90
2022/08/02 08:00:37;;;;;;;2.00;1.73;;;21.70;99.90;;;;;;5009896;28;20120;-91
2022/08/02 08:03:03;;;;;;;2.88;1.80;;;21.70;99.90;;;;;;5013655;28;20061;-90
2022/08/02 08:05:28;;;;;;;5.13;1.92;;;21.90;99.90;;;;;;5014990;28;20470;-91
2022/08/02 08:07:54;;;;;;;3.03;1.83;;;21.90;99.90;;;;;;5030864;28;20018;-90
2022/08/02 08:10:20;;;;;;;2.40;1.73;;;22.00;99.90;;;;;;5028038;28;20025;-91
2022/08/02 08:12:45;;;;;;;5.03;1.95;;;22.20;99.90;;;;;;5014223;28;20150;-89
2022/08/02 08:15:11;;;;;;;1.92;1.70;;;22.40;99.90;;;;;;5023349;28;20484;-88
2022/08/02 08:17:37;;;;;;;1.70;1.60;;;23.00;99.90;;;;;;5023841;28;20134;-90
2022/08/02 08:20:04;;;;;;;1.42;1.33;;;24.40;99.90;;;;;;5024114;28;20029;-91
2022/08/02 08:22:29;;;;;;;2.08;1.65;;;25.20;99.90;;;;;;5007865;28;20029;-89
2022/08/02 08:24:55;;;;;;;2.47;1.40;;;26.20;99.60;;;;;;5008746;28;20040;-90
2022/08/02 08:27:21;;;;;;;2.28;1.30;;;27.50;97.10;;;;;;5029253;28;20056;-90
2022/08/02 08:29:48;;;;;;;2.13;1.60;;;28.90;94.40;;;;;;5019965;28;20060;-89
2022/08/02 08:32:14;;;;;;;3.15;1.10;;;29.70;92.90;;;;;;4997483;28;20021;-92
2022/08/02 08:34:40;;;;;;;2.38;1.30;;;30.50;88.40;;;;;;5026807;28;20031;-90
2022/08/02 08:37:05;;;;;;;1.27;1.17;;;30.80;82.70;;;;;;5030102;28;20737;-90
2022/08/02 08:39:31;;;;;;;2.20;1.08;;;30.80;79.90;;;;;;5024185;28;20021;-88
2022/08/02 08:41:57;;;;;;;2.50;1.38;;;30.50;78.30;;;;;;5005122;28;20508;-89
2022/08/02 08:44:23;;;;;;;1.23;1.08;;;30.40;78.20;;;;;;5032287;28;20032;-90
2022/08/02 08:46:49;;;;;;;2.00;1.52;;;30.70;77.40;;;;;;5026619;28;20033;-90
2022/08/02 08:49:31;;;;;;;1.25;1.17;;;30.70;76.90;;;;;;5025624;28;20053;-90
2022/08/02 08:52:02;;;;;;;2.47;1.77;;;30.80;76.40;;;;;;5008238;28;20045;-90
2022/08/02 08:54:30;;;;;;;1.75;1.63;;;31.30;76.20;;;;;;5024843;28;20025;-89
2022/08/02 08:56:56;;;;;;;1.73;1.63;;;31.10;77.60;;;;;;5026381;28;20040;-91
2022/08/02 09:03:09;;;;;;;2.78;1.73;;;32.10;73.20;;;;;;5024192;28;20747;-89
2022/08/02 09:05:40;;;;;;;4.53;1.30;;;32.70;70.70;;;;;;5001260;28;20042;-90
2022/08/02 09:08:06;;;;;;;2.03;1.52;;;32.10;70.00;;;;;;5001781;28;20034;-91
2022/08/02 09:10:46;;;;;;;4.70;1.60;;;31.90;69.30;;;;;;4998357;28;20029;-89
2022/08/02 09:13:17;;;;;;;2.40;1.20;;;32.00;68.80;;;;;;5026772;28;20057;-90
2022/08/02 09:15:52;;;;;;;1.55;1.30;;;32.00;67.10;;;;;;5015649;28;20026;-90
2022/08/02 09:18:17;;;;;;;1.90;1.38;;;32.20;66.50;;;;;;5015009;28;20038;-89
2022/08/02 09:20:52;;;;;;;3.13;1.50;;;32.40;66.40;;;;;;5014322;28;20033;-90
2022/08/02 09:23:18;;;;;;;1.80;1.70;;;32.30;66.30;;;;;;5016897;28;20089;-90
2022/08/02 09:25:58;;;;;;;3.83;1.73;;;32.40;66.60;;;;;;4995322;28;20121;-90
2022/08/02 09:28:29;;;;;;;2.80;1.70;;;32.70;66.70;;;;;;5025159;28;20025;-89
2022/08/02 09:31:08;;;;;;;1.95;1.50;;;32.70;68.70;;;;;;5006611;28;20041;-90
2022/08/02 09:33:35;;;;;;;2.03;1.42;;;32.80;67.80;;;;;;5017741;28;20025;-91
2022/08/02 09:36:12;;;;;;;1.73;1.60;;;33.00;66.70;;;;;;5015952;28;20017;-89
2022/08/02 09:38:51;;;;;;;4.40;1.52;;;33.20;64.00;;;;;;5006667;28;20612;-89
2022/08/02 09:41:23;;;;;;;1.73;1.63;;;33.70;63.60;;;;;;5001735;28;20030;-89
2022/08/02 09:43:52;;;;;;;2.20;1.30;;;34.50;61.40;;;;;;5006614;28;20080;-90
2022/08/02 09:46:21;;;;;;;2.08;1.80;;;34.50;61.20;;;;;;5018608;28;20033;-89
2022/08/02 09:49:09;;;;;;;1.88;1.65;;;33.20;61.10;;;;;;5020457;28;20083;-90
2022/08/02 09:51:48;;;;;;;3.95;1.55;;;33.50;61.70;;;;;;5010377;28;20125;-90
2022/08/02 09:54:27;;;;;;;1.63;1.27;;;33.60;62.40;;;;;;5014110;28;20026;-89
2022/08/02 09:56:58;;;;;;;1.65;1.27;;;34.30;62.20;;;;;;5018733;28;20505;-89
2022/08/02 09:59:25;;;;;;;1.58;1.35;;;33.70;61.50;;;;;;5011099;28;20018;-91
2022/08/02 10:01:52;;;;;;;1.45;1.27;;;33.60;60.80;;;;;;5016294;28;20026;-90
2022/08/02 10:04:21;;;;;;;3.40;1.42;;;33.50;62.20;;;;;;5001554;28;20030;-89
2022/08/02 10:06:48;;;;;;;1.58;1.48;;;33.20;61.80;;;;;;5002135;28;20037;-91
2022/08/02 10:09:15;;;;;;;3.95;1.52;;;32.00;62.70;;;;;;5001717;28;20030;-90
2022/08/02 10:11:41;;;;;;;1.95;1.80;;;31.70;65.10;;;;;;5005109;28;20401;-90
2022/08/02 10:14:09;;;;;;;1.90;1.80;;;31.60;65.90;;;;;;5010977;28;20025;-90
2022/08/02 10:17:09;;;;;;;4.75;1.90;;;30.90;67.10;;;;;;4996924;28;20026;-89
2022/08/02 10:19:35;;;;;;;3.85;1.55;;;30.20;67.70;;;;;;5004567;28;20171;-90
2022/08/02 10:22:05;;;;;;;1.85;1.60;;;30.00;69.20;;;;;;5012967;28;20565;-90
2022/08/02 10:24:35;;;;;;;1.98;1.85;;;29.90;69.00;;;;;;5034836;28;20090;-91
2022/08/02 10:27:02;;;;;;;1.77;1.67;;;29.10;70.20;;;;;;5026756;28;20033;-90
2022/08/02 10:29:35;;;;;;;2.85;1.50;;;28.80;71.00;;;;;;5011382;28;20033;-89
2022/08/02 10:32:20;;;;;;;1.77;1.67;;;28.70;72.30;;;;;;5026277;28;20030;-90
2022/08/02 10:34:47;;;;;;;2.35;1.73;;;28.30;73.10;;;;;;5025553;28;20026;-90
2022/08/02 10:37:14;;;;;;;1.30;1.20;;;28.60;70.80;;;;;;5008298;28;20030;-91
2022/08/02 10:39:42;;;;;;;1.48;1.38;;;29.10;70.10;;;;;;5006202;28;20040;-89
2022/08/02 10:42:08;;;;;;;1.40;1.30;;;30.30;68.20;;;;;;5025524;28;20121;-91
2022/08/02 10:44:35;;;;;;;1.95;1.50;;;31.10;67.10;;;;;;5011258;28;20034;-89
2022/08/02 10:47:13;;;;;;;1.60;1.45;;;31.70;65.40;;;;;;5019905;28;20037;-90
2022/08/02 10:49:58;;;;;;;2.03;1.38;;;32.20;64.40;;;;;;5023762;28;20116;-88
2022/08/02 10:52:25;;;;;;;2.60;1.33;;;32.20;63.30;;;;;;5031980;28;20025;-90
2022/08/02 10:55:10;;;;;;;1.20;1.10;;;31.60;63.60;;;;;;5026807;28;20477;-90
2022/08/02 10:57:36;;;;;;;2.45;1.50;;;31.30;63.80;;;;;;5027332;28;20547;-90
2022/08/02 11:00:22;;;;;;;5.80;1.25;;;31.30;64.40;;;;;;5026607;28;20034;-90
2022/08/02 11:02:48;;;;;;;4.57;1.25;;;31.90;63.10;;;;;;5024965;28;20084;-90
2022/08/02 11:05:31;;;;;;;2.38;1.50;;;32.00;62.00;;;;;;5012495;28;20160;-89
2022/08/02 11:07:57;;;;;;;5.13;1.30;;;32.40;62.10;;;;;;5021547;28;20124;-90
2022/08/02 11:10:31;;;;;;;1.70;1.20;;;32.30;62.80;;;;;;5010937;28;20121;-91
2022/08/02 11:13:00;;;;;;;1.52;1.25;;;31.80;61.00;;;;;;5022803;28;20037;-90
2022/08/02 11:15:26;;;;;;;1.33;1.20;;;30.90;62.80;;;;;;5017871;28;20022;-89
2022/08/02 11:17:54;;;;;;;2.17;1.40;;;30.80;62.60;;;;;;5014130;28;20385;-90
2022/08/02 11:20:21;;;;;;;1.40;1.30;;;30.30;64.80;;;;;;4998814;28;20775;-90
2022/08/02 11:22:50;;;;;;;1.92;1.50;;;29.70;65.60;;;;;;5021430;28;20026;-90
2022/08/02 11:25:22;;;;;;;1.50;1.25;;;29.30;65.30;;;;;;5026310;28;20064;-89
2022/08/02 11:28:06;;;;;;;1.80;1.50;;;28.60;66.70;;;;;;5006449;28;20030;-89
2022/08/02 11:30:32;;;;;;;1.70;1.60;;;27.80;69.60;;;;;;5011108;28;20029;-88
2022/08/02 11:32:59;;;;;;;1.75;1.20;;;27.30;70.10;;;;;;4997516;28;20446;-90
2022/08/02 11:39:14;;;;;;;1.67;1.58;;;26.60;71.40;;;;;;5020560;28;20036;-90
2022/08/02 11:41:41;;;;;;;2.20;1.73;;;26.90;73.70;;;;;;5019093;28;20545;-89
2022/08/02 11:44:07;;;;;;;2.05;1.80;;;27.30;70.90;;;;;;5013916;28;20033;-90
2022/08/02 11:46:33;;;;;;;1.17;1.10;;;27.70;70.20;;;;;;5029379;28;20026;-89
2022/08/02 11:49:14;;;;;;;3.38;1.65;;;28.90;68.20;;;;;;5012295;28;20115;-90
2022/08/02 11:51:52;;;;;;;1.70;1.50;;;29.60;67.50;;;;;;5024445;28;20025;-90
2022/08/02 11:54:26;;;;;;;1.65;1.40;;;29.40;68.10;;;;;;5016231;28;20125;-89
2022/08/02 11:56:52;;;;;;;1.45;1.35;;;29.00;67.30;;;;;;5028560;28;20052;-89
2022/08/02 11:59:27;;;;;;;2.22;1.40;;;28.40;67.80;;;;;;5025172;28;20030;-89
2022/08/02 12:01:55;;;;;;;2.05;1.40;;;28.70;68.60;;;;;;5006255;28;20120;-90
2022/08/02 12:04:21;;;;;;;4.93;1.95;;;29.80;67.80;;;;;;5012926;28;20494;-90
2022/08/02 12:06:55;;;;;;;4.55;1.52;;;30.40;65.60;;;;;;5011436;28;20037;-89
2022/08/02 12:09:22;;;;;;;2.40;2.20;;;30.30;65.50;;;;;;5017820;28;20436;-91
2022/08/02 12:12:02;;;;;;;4.05;1.63;;;29.60;66.00;;;;;;5011780;28;20025;-90
2022/08/02 12:14:30;;;;;;;2.25;1.83;;;28.70;67.80;;;;;;5014565;28;20492;-89
2022/08/02 12:19:42;;;;;;;2.05;1.88;;;27.80;69.50;;;;;;5023489;28;20622;-89
2022/08/02 12:22:16;;;;;;;2.38;1.70;;;27.90;71.60;;;;;;5011558;28;20051;-89
2022/08/02 12:24:46;;;;;;;2.13;1.92;;;27.90;69.00;;;;;;5001207;28;20038;-90
2022/08/02 12:27:34;;;;;;;3.90;1.80;;;27.70;68.80;;;;;;5024360;28;20033;-89
2022/08/02 12:30:03;;;;;;;1.90;1.60;;;27.60;69.90;;;;;;5012300;28;20429;-89
2022/08/02 12:32:29;;;;;;;2.22;1.80;;;27.70;69.90;;;;;;5012970;28;20034;-89
2022/08/02 12:35:15;;;;;;;1.60;1.50;;;27.90;70.00;;;;;;5026447;28;20031;-90
2022/08/02 12:37:44;;;;;;;2.30;1.67;;;27.90;69.30;;;;;;5005137;28;20088;-90
2022/08/02 12:40:20;;;;;;;2.00;1.80;;;28.70;69.50;;;;;;5012458;28;20241;-90
2022/08/02 12:42:48;;;;;;;2.40;1.88;;;29.60;67.50;;;;;;5016434;28;20030;-92
2022/08/02 12:45:13;;;;;;;2.25;1.80;;;30.10;67.00;;;;;;5012533;28;20026;-90
2022/08/02 12:47:51;;;;;;;2.20;1.70;;;30.90;65.50;;;;;;5025705;28;20029;-89
2022/08/02 12:50:28;;;;;;;1.38;1.27;;;31.20;65.10;;;;;;5012973;28;20481;-90
2022/08/02 12:53:13;;;;;;;2.15;1.55;;;31.60;63.60;;;;;;5010351;28;20022;-90
2022/08/02 12:55:53;;;;;;;1.40;1.30;;;31.70;63.60;;;;;;5004423;28;20026;-90
2022/08/02 12:58:19;;;;;;;2.17;1.88;;;32.30;61.50;;;;;;5007036;28;20026;-91
2022/08/02 13:00:57;;;;;;;1.73;1.20;;;32.30;62.50;;;;;;5025571;28;20029;-90
2022/08/02 13:03:44;;;;;;;3.40;1.50;;;31.90;62.20;;;;;;5023633;28;20022;-90
2022/08/02 13:06:10;;;;;;;2.58;1.27;;;31.90;62.10;;;;;;5005579;28;20470;-90
2022/08/02 13:08:37;;;;;;;2.67;1.55;;;31.70;60.90;;;;;;5025763;28;20075;-89
2022/08/02 13:11:02;;;;;;;1.83;1.70;;;31.10;62.50;;;;;;5016306;28;20030;-89
2022/08/02 13:13:28;;;;;;;2.47;1.65;;;30.40;61.60;;;;;;5020053;28;20037;-91
2022/08/02 13:16:00;;;;;;;1.80;1.70;;;30.20;63.70;;;;;;5014527;28;20038;-90
2022/08/02 13:18:25;;;;;;;4.63;1.85;;;29.90;63.10;;;;;;5001326;28;20113;-90
2022/08/02 13:20:52;;;;;;;4.35;1.73;;;29.50;66.10;;;;;;5013397;28;20053;-89
2022/08/02 13:23:19;;;;;;;2.03;1.73;;;29.40;65.00;;;;;;5030075;28;20029;-88
2022/08/02 13:25:44;;;;;;;2.35;1.60;;;30.20;64.90;;;;;;5010556;28;20025;-91
2022/08/02 13:28:10;;;;;;;1.48;1.38;;;30.50;64.00;;;;;;5017703;28;20034;-91